sensor_id;sensor_type;location;lat;lon;timestamp;P1;durP1;ratioP1;P2;durP2;ratioP2
12519;SDS011;6325;49.540;8.364;2023-04-06T00:06:17;6.40;;;5.80;;
12519;SDS011;6325;49.540;8.364;2023-04-06T00:12:47;5.82;;;5.25;;
12519;SDS011;6325;49.540;8.364;2023-04-06T00:16:22;6.25;;;5.65;;
12519;SDS011;6325;49.540;8.364;2023-04-06T00:20:47;5.90;;;5.40;;
12519;SDS011;6325;49.540;8.364;2023-04-06T00:26:39;6.05;;;5.45;;
12519;SDS011;6325;49.540;8.364;2023-04-06T00:29:34;6.25;;;5.72;;
12519;SDS011;6325;49.540;8.364;2023-04-06T00:32:39;6.15;;;5.55;;
12519;SDS011;6325;49.540;8.364;2023-04-06T00:35:52;5.90;;;5.30;;
12519;SDS011;6325;49.540;8.364;2023-04-06T00:45:28;5.95;;;5.45;;
12519;SDS011;6325;49.540;8.364;2023-04-06T00:48:20;6.82;;;6.13;;
12519;SDS011;6325;49.540;8.364;2023-04-06T00:51:39;6.50;;;5.90;;
12519;SDS011;6325;49.540;8.364;2023-04-06T00:54:35;6.35;;;5.70;;
12519;SDS011;6325;49.540;8.364;2023-04-06T01:05:05;6.90;;;6.30;;
12519;SDS011;6325;49.540;8.364;2023-04-06T01:11:13;7.00;;;6.28;;
12519;SDS011;6325;49.540;8.364;2023-04-06T01:14:28;7.63;;;6.78;;
12519;SDS011;6325;49.540;8.364;2023-04-06T01:17:40;7.28;;;6.57;;
12519;SDS011;6325;49.540;8.364;2023-04-06T01:20:56;7.13;;;6.43;;
12519;SDS011;6325;49.540;8.364;2023-04-06T01:34:39;6.35;;;5.75;;
12519;SDS011;6325;49.540;8.364;2023-04-06T01:37:41;6.80;;;5.88;;
12519;SDS011;6325;49.540;8.364;2023-04-06T01:40:47;5.90;;;5.40;;
12519;SDS011;6325;49.540;8.364;2023-04-06T01:46:23;6.93;;;5.72;;
12519;SDS011;6325;49.540;8.364;2023-04-06T01:49:33;6.20;;;5.63;;
12519;SDS011;6325;49.540;8.364;2023-04-06T01:52:51;6.40;;;5.80;;
12519;SDS011;6325;49.540;8.364;2023-04-06T01:55:56;6.93;;;6.25;;
12519;SDS011;6325;49.540;8.364;2023-04-06T01:58:50;7.30;;;6.60;;
12519;SDS011;6325;49.540;8.364;2023-04-06T02:02:00;6.95;;;6.35;;
12519;SDS011;6325;49.540;8.364;2023-04-06T02:08:24;6.50;;;5.90;;
12519;SDS011;6325;49.540;8.364;2023-04-06T02:11:10;6.07;;;5.47;;
12519;SDS011;6325;49.540;8.364;2023-04-06T02:14:04;6.05;;;5.53;;
12519;SDS011;6325;49.540;8.364;2023-04-06T02:20:25;6.18;;;5.57;;
12519;SDS011;6325;49.540;8.364;2023-04-06T02:23:13;5.93;;;5.40;;
12519;SDS011;6325;49.540;8.364;2023-04-06T02:29:40;5.85;;;5.35;;
12519;SDS011;6325;49.540;8.364;2023-04-06T02:35:49;6.20;;;5.35;;
12519;SDS011;6325;49.540;8.364;2023-04-06T02:38:35;7.78;;;5.95;;
12519;SDS011;6325;49.540;8.364;2023-04-06T02:41:19;5.75;;;5.25;;
12519;SDS011;6325;49.540;8.364;2023-04-06T02:44:37;5.65;;;5.13;;
12519;SDS011;6325;49.540;8.364;2023-04-06T02:47:53;5.50;;;5.00;;
12519;SDS011;6325;49.540;8.364;2023-04-06T02:50:46;5.60;;;5.10;;
12519;SDS011;6325;49.540;8.364;2023-04-06T02:53:58;5.57;;;5.07;;
12519;SDS011;6325;49.540;8.364;2023-04-06T03:00:06;6.03;;;4.80;;
12519;SDS011;6325;49.540;8.364;2023-04-06T03:02:47;5.30;;;4.90;;
12519;SDS011;6325;49.540;8.364;2023-04-06T03:06:34;5.13;;;4.63;;
12519;SDS011;6325;49.540;8.364;2023-04-06T03:12:44;5.30;;;4.80;;
12519;SDS011;6325;49.540;8.364;2023-04-06T03:16:05;5.57;;;5.07;;
12519;SDS011;6325;49.540;8.364;2023-04-06T03:25:05;5.10;;;4.70;;
12519;SDS011;6325;49.540;8.364;2023-04-06T03:28:22;5.15;;;4.60;;
12519;SDS011;6325;49.540;8.364;2023-04-06T03:37:15;5.28;;;4.78;;
12519;SDS011;6325;49.540;8.364;2023-04-06T03:47:59;4.93;;;4.43;;
12519;SDS011;6325;49.540;8.364;2023-04-06T03:51:08;5.40;;;4.72;;
12519;SDS011;6325;49.540;8.364;2023-04-06T03:55:08;6.03;;;4.70;;
12519;SDS011;6325;49.540;8.364;2023-04-06T03:58:00;5.47;;;4.95;;
12519;SDS011;6325;49.540;8.364;2023-04-06T04:01:07;5.53;;;5.03;;
12519;SDS011;6325;49.540;8.364;2023-04-06T04:17:46;6.25;;;5.20;;
12519;SDS011;6325;49.540;8.364;2023-04-06T04:21:12;5.75;;;5.25;;
12519;SDS011;6325;49.540;8.364;2023-04-06T04:24:09;5.90;;;5.40;;
12519;SDS011;6325;49.540;8.364;2023-04-06T04:27:32;5.80;;;5.23;;
12519;SDS011;6325;49.540;8.364;2023-04-06T04:54:00;6.03;;;5.43;;
12519;SDS011;6325;49.540;8.364;2023-04-06T05:00:58;5.95;;;5.43;;
12519;SDS011;6325;49.540;8.364;2023-04-06T05:04:18;6.00;;;5.50;;
12519;SDS011;6325;49.540;8.364;2023-04-06T05:15:21;5.95;;;5.45;;
12519;SDS011;6325;49.540;8.364;2023-04-06T05:20:52;6.20;;;5.60;;
12519;SDS011;6325;49.540;8.364;2023-04-06T05:25:50;5.63;;;5.13;;
12519;SDS011;6325;49.540;8.364;2023-04-06T05:28:17;5.38;;;4.97;;
12519;SDS011;6325;49.540;8.364;2023-04-06T05:30:44;5.93;;;5.38;;
12519;SDS011;6325;49.540;8.364;2023-04-06T05:33:12;5.50;;;5.00;;
12519;SDS011;6325;49.540;8.364;2023-04-06T05:35:39;7.00;;;5.50;;
12519;SDS011;6325;49.540;8.364;2023-04-06T05:38:07;6.30;;;5.57;;
12519;SDS011;6325;49.540;8.364;2023-04-06T05:40:35;6.47;;;5.88;;
12519;SDS011;6325;49.540;8.364;2023-04-06T05:43:04;6.87;;;5.70;;
12519;SDS011;6325;49.540;8.364;2023-04-06T05:45:31;6.50;;;5.78;;
12519;SDS011;6325;49.540;8.364;2023-04-06T05:47:58;5.90;;;5.40;;
12519;SDS011;6325;49.540;8.364;2023-04-06T05:50:26;6.63;;;5.93;;
12519;SDS011;6325;49.540;8.364;2023-04-06T05:52:53;7.47;;;6.10;;
12519;SDS011;6325;49.540;8.364;2023-04-06T05:55:20;7.65;;;5.80;;
12519;SDS011;6325;49.540;8.364;2023-04-06T05:57:47;6.60;;;6.00;;
12519;SDS011;6325;49.540;8.364;2023-04-06T06:00:16;6.65;;;6.00;;
12519;SDS011;6325;49.540;8.364;2023-04-06T06:02:43;6.45;;;5.85;;
12519;SDS011;6325;49.540;8.364;2023-04-06T06:05:11;6.63;;;6.03;;
12519;SDS011;6325;49.540;8.364;2023-04-06T06:07:38;6.25;;;5.70;;
12519;SDS011;6325;49.540;8.364;2023-04-06T06:10:05;6.40;;;5.80;;
12519;SDS011;6325;49.540;8.364;2023-04-06T06:12:33;7.00;;;6.30;;
12519;SDS011;6325;49.540;8.364;2023-04-06T06:15:01;6.95;;;6.25;;
12519;SDS011;6325;49.540;8.364;2023-04-06T06:17:32;7.20;;;6.22;;
12519;SDS011;6325;49.540;8.364;2023-04-06T06:20:04;7.05;;;6.43;;
12519;SDS011;6325;49.540;8.364;2023-04-06T06:22:32;6.40;;;5.90;;
12519;SDS011;6325;49.540;8.364;2023-04-06T06:24:59;7.00;;;6.40;;
12519;SDS011;6325;49.540;8.364;2023-04-06T06:27:26;7.23;;;6.53;;
12519;SDS011;6325;49.540;8.364;2023-04-06T06:29:53;6.85;;;6.25;;
12519;SDS011;6325;49.540;8.364;2023-04-06T06:32:20;6.30;;;5.80;;
12519;SDS011;6325;49.540;8.364;2023-04-06T06:34:49;6.78;;;6.18;;
12519;SDS011;6325;49.540;8.364;2023-04-06T06:37:16;7.33;;;6.30;;
12519;SDS011;6325;49.540;8.364;2023-04-06T06:39:43;6.80;;;6.20;;
12519;SDS011;6325;49.540;8.364;2023-04-06T06:42:10;6.85;;;6.25;;
12519;SDS011;6325;49.540;8.364;2023-04-06T06:44:37;6.85;;;6.25;;
12519;SDS011;6325;49.540;8.364;2023-04-06T06:47:04;6.38;;;5.78;;
12519;SDS011;6325;49.540;8.364;2023-04-06T06:49:30;6.57;;;5.88;;
12519;SDS011;6325;49.540;8.364;2023-04-06T06:52:00;6.78;;;6.07;;
12519;SDS011;6325;49.540;8.364;2023-04-06T06:54:27;6.23;;;5.70;;
12519;SDS011;6325;49.540;8.364;2023-04-06T06:56:54;6.63;;;6.07;;
12519;SDS011;6325;49.540;8.364;2023-04-06T06:59:21;6.38;;;5.82;;
12519;SDS011;6325;49.540;8.364;2023-04-06T07:01:47;6.50;;;6.00;;
12519;SDS011;6325;49.540;8.364;2023-04-06T07:04:16;6.72;;;6.03;;
12519;SDS011;6325;49.540;8.364;2023-04-06T07:06:43;6.50;;;6.00;;
12519;SDS011;6325;49.540;8.364;2023-04-06T07:09:11;6.60;;;6.00;;
12519;SDS011;6325;49.540;8.364;2023-04-06T07:11:38;6.20;;;5.70;;
12519;SDS011;6325;49.540;8.364;2023-04-06T07:14:05;6.40;;;5.80;;
12519;SDS011;6325;49.540;8.364;2023-04-06T07:16:32;6.30;;;5.70;;
12519;SDS011;6325;49.540;8.364;2023-04-06T07:18:59;6.32;;;5.78;;
12519;SDS011;6325;49.540;8.364;2023-04-06T07:21:26;6.80;;;6.20;;
12519;SDS011;6325;49.540;8.364;2023-04-06T07:23:53;6.88;;;6.18;;
12519;SDS011;6325;49.540;8.364;2023-04-06T07:26:21;6.75;;;6.15;;
12519;SDS011;6325;49.540;8.364;2023-04-06T07:28:48;6.83;;;6.23;;
12519;SDS011;6325;49.540;8.364;2023-04-06T07:31:16;7.13;;;6.53;;
12519;SDS011;6325;49.540;8.364;2023-04-06T07:33:43;6.85;;;6.25;;
12519;SDS011;6325;49.540;8.364;2023-04-06T07:36:10;6.97;;;6.28;;
12519;SDS011;6325;49.540;8.364;2023-04-06T07:38:37;6.82;;;6.22;;
12519;SDS011;6325;49.540;8.364;2023-04-06T07:41:05;6.53;;;6.03;;
12519;SDS011;6325;49.540;8.364;2023-04-06T07:43:33;6.13;;;5.63;;
12519;SDS011;6325;49.540;8.364;2023-04-06T07:46:00;6.88;;;6.20;;
12519;SDS011;6325;49.540;8.364;2023-04-06T07:48:27;6.57;;;5.97;;
12519;SDS011;6325;49.540;8.364;2023-04-06T07:51:00;7.03;;;6.32;;
12519;SDS011;6325;49.540;8.364;2023-04-06T07:53:28;6.47;;;5.88;;
12519;SDS011;6325;49.540;8.364;2023-04-06T07:55:55;6.10;;;5.50;;
12519;SDS011;6325;49.540;8.364;2023-04-06T07:58:22;6.20;;;5.70;;
12519;SDS011;6325;49.540;8.364;2023-04-06T08:00:50;6.53;;;5.93;;
12519;SDS011;6325;49.540;8.364;2023-04-06T08:03:17;6.40;;;5.80;;
12519;SDS011;6325;49.540;8.364;2023-04-06T08:05:45;6.07;;;5.60;;
12519;SDS011;6325;49.540;8.364;2023-04-06T08:08:13;6.40;;;5.90;;
12519;SDS011;6325;49.540;8.364;2023-04-06T08:10:40;5.85;;;5.35;;
12519;SDS011;6325;49.540;8.364;2023-04-06T08:13:09;6.93;;;6.05;;
12519;SDS011;6325;49.540;8.364;2023-04-06T08:15:37;7.03;;;6.43;;
12519;SDS011;6325;49.540;8.364;2023-04-06T08:18:05;7.27;;;6.57;;
12519;SDS011;6325;49.540;8.364;2023-04-06T08:20:32;7.47;;;6.78;;
12519;SDS011;6325;49.540;8.364;2023-04-06T08:22:59;7.40;;;6.70;;
12519;SDS011;6325;49.540;8.364;2023-04-06T08:25:26;7.50;;;6.87;;
12519;SDS011;6325;49.540;8.364;2023-04-06T08:27:54;6.88;;;6.28;;
12519;SDS011;6325;49.540;8.364;2023-04-06T08:30:22;7.38;;;6.68;;
12519;SDS011;6325;49.540;8.364;2023-04-06T08:32:48;7.20;;;6.50;;
12519;SDS011;6325;49.540;8.364;2023-04-06T08:35:17;7.60;;;6.82;;
12519;SDS011;6325;49.540;8.364;2023-04-06T08:37:44;7.43;;;6.72;;
12519;SDS011;6325;49.540;8.364;2023-04-06T08:40:11;7.53;;;6.60;;
12519;SDS011;6325;49.540;8.364;2023-04-06T08:42:40;7.32;;;6.65;;
12519;SDS011;6325;49.540;8.364;2023-04-06T08:45:13;6.85;;;6.25;;
12519;SDS011;6325;49.540;8.364;2023-04-06T08:47:42;7.72;;;6.95;;
12519;SDS011;6325;49.540;8.364;2023-04-06T08:50:10;7.95;;;6.78;;
12519;SDS011;6325;49.540;8.364;2023-04-06T08:52:39;6.80;;;6.28;;
12519;SDS011;6325;49.540;8.364;2023-04-06T08:55:08;7.07;;;6.47;;
12519;SDS011;6325;49.540;8.364;2023-04-06T08:57:35;7.57;;;6.90;;
12519;SDS011;6325;49.540;8.364;2023-04-06T09:00:03;7.57;;;6.88;;
12519;SDS011;6325;49.540;8.364;2023-04-06T09:02:33;7.18;;;6.50;;
12519;SDS011;6325;49.540;8.364;2023-04-06T09:05:03;7.57;;;6.90;;
12519;SDS011;6325;49.540;8.364;2023-04-06T09:07:32;8.00;;;6.85;;
12519;SDS011;6325;49.540;8.364;2023-04-06T09:10:01;7.57;;;6.80;;
12519;SDS011;6325;49.540;8.364;2023-04-06T09:12:29;7.45;;;6.75;;
12519;SDS011;6325;49.540;8.364;2023-04-06T09:14:58;7.10;;;6.50;;
12519;SDS011;6325;49.540;8.364;2023-04-06T09:17:26;7.00;;;6.30;;
12519;SDS011;6325;49.540;8.364;2023-04-06T09:19:53;6.90;;;6.30;;
12519;SDS011;6325;49.540;8.364;2023-04-06T09:22:21;7.00;;;6.40;;
12519;SDS011;6325;49.540;8.364;2023-04-06T09:24:52;6.88;;;6.38;;
12519;SDS011;6325;49.540;8.364;2023-04-06T09:27:30;6.85;;;6.25;;
12519;SDS011;6325;49.540;8.364;2023-04-06T09:30:08;6.55;;;5.95;;
12519;SDS011;6325;49.540;8.364;2023-04-06T09:32:45;6.90;;;6.30;;
12519;SDS011;6325;49.540;8.364;2023-04-06T09:35:14;6.72;;;6.13;;
12519;SDS011;6325;49.540;8.364;2023-04-06T09:37:41;6.60;;;6.00;;
12519;SDS011;6325;49.540;8.364;2023-04-06T09:40:09;7.00;;;6.30;;
12519;SDS011;6325;49.540;8.364;2023-04-06T09:42:39;6.90;;;6.10;;
12519;SDS011;6325;49.540;8.364;2023-04-06T09:45:13;6.32;;;5.78;;
12519;SDS011;6325;49.540;8.364;2023-04-06T09:47:42;6.20;;;5.60;;
12519;SDS011;6325;49.540;8.364;2023-04-06T09:50:10;6.45;;;5.85;;
12519;SDS011;6325;49.540;8.364;2023-04-06T09:52:40;6.20;;;5.68;;
12519;SDS011;6325;49.540;8.364;2023-04-06T09:55:10;6.30;;;5.70;;
12519;SDS011;6325;49.540;8.364;2023-04-06T09:57:43;6.50;;;5.90;;
12519;SDS011;6325;49.540;8.364;2023-04-06T10:00:17;5.90;;;5.40;;
12519;SDS011;6325;49.540;8.364;2023-04-06T10:02:48;5.60;;;5.10;;
12519;SDS011;6325;49.540;8.364;2023-04-06T10:05:22;5.63;;;5.13;;
12519;SDS011;6325;49.540;8.364;2023-04-06T10:07:57;5.95;;;5.38;;
12519;SDS011;6325;49.540;8.364;2023-04-06T10:10:28;5.80;;;5.32;;
12519;SDS011;6325;49.540;8.364;2023-04-06T10:12:57;5.97;;;5.38;;
12519;SDS011;6325;49.540;8.364;2023-04-06T10:15:25;5.40;;;5.00;;
12519;SDS011;6325;49.540;8.364;2023-04-06T10:17:53;6.07;;;5.47;;
12519;SDS011;6325;49.540;8.364;2023-04-06T10:20:21;5.68;;;5.18;;
12519;SDS011;6325;49.540;8.364;2023-04-06T10:22:54;5.68;;;5.18;;
12519;SDS011;6325;49.540;8.364;2023-04-06T10:25:28;5.47;;;4.97;;
12519;SDS011;6325;49.540;8.364;2023-04-06T10:28:00;4.83;;;4.40;;
12519;SDS011;6325;49.540;8.364;2023-04-06T10:30:30;5.18;;;4.68;;
12519;SDS011;6325;49.540;8.364;2023-04-06T10:32:59;4.80;;;4.40;;
12519;SDS011;6325;49.540;8.364;2023-04-06T10:35:35;5.00;;;4.50;;
12519;SDS011;6325;49.540;8.364;2023-04-06T10:38:03;5.05;;;4.65;;
12519;SDS011;6325;49.540;8.364;2023-04-06T10:40:30;5.63;;;5.00;;
12519;SDS011;6325;49.540;8.364;2023-04-06T10:43:08;5.20;;;4.80;;
12519;SDS011;6325;49.540;8.364;2023-04-06T10:45:36;4.90;;;4.50;;
12519;SDS011;6325;49.540;8.364;2023-04-06T10:48:12;4.55;;;4.00;;
12519;SDS011;6325;49.540;8.364;2023-04-06T10:50:41;4.45;;;4.15;;
12519;SDS011;6325;49.540;8.364;2023-04-06T10:53:08;4.30;;;3.90;;
12519;SDS011;6325;49.540;8.364;2023-04-06T10:55:35;4.38;;;3.97;;
12519;SDS011;6325;49.540;8.364;2023-04-06T10:58:07;4.00;;;3.70;;
12519;SDS011;6325;49.540;8.364;2023-04-06T11:00:34;3.83;;;3.53;;
12519;SDS011;6325;49.540;8.364;2023-04-06T11:03:02;3.80;;;3.50;;
12519;SDS011;6325;49.540;8.364;2023-04-06T11:05:29;4.07;;;3.67;;
12519;SDS011;6325;49.540;8.364;2023-04-06T11:07:56;4.13;;;3.72;;
12519;SDS011;6325;49.540;8.364;2023-04-06T11:10:23;3.53;;;3.22;;
12519;SDS011;6325;49.540;8.364;2023-04-06T11:12:53;2.92;;;2.72;;
12519;SDS011;6325;49.540;8.364;2023-04-06T11:15:22;3.05;;;2.85;;
12519;SDS011;6325;49.540;8.364;2023-04-06T11:17:49;3.30;;;3.05;;
12519;SDS011;6325;49.540;8.364;2023-04-06T11:20:16;3.20;;;2.97;;
12519;SDS011;6325;49.540;8.364;2023-04-06T11:22:48;3.13;;;2.92;;
12519;SDS011;6325;49.540;8.364;2023-04-06T11:25:15;3.60;;;3.30;;
12519;SDS011;6325;49.540;8.364;2023-04-06T11:27:43;4.05;;;3.75;;
12519;SDS011;6325;49.540;8.364;2023-04-06T11:30:11;4.10;;;3.80;;
12519;SDS011;6325;49.540;8.364;2023-04-06T11:32:41;4.30;;;4.00;;
12519;SDS011;6325;49.540;8.364;2023-04-06T11:35:10;4.10;;;3.80;;
12519;SDS011;6325;49.540;8.364;2023-04-06T11:37:38;4.47;;;4.07;;
12519;SDS011;6325;49.540;8.364;2023-04-06T11:40:09;4.07;;;3.78;;
12519;SDS011;6325;49.540;8.364;2023-04-06T11:42:36;3.90;;;3.58;;
12519;SDS011;6325;49.540;8.364;2023-04-06T11:45:04;4.17;;;3.87;;
12519;SDS011;6325;49.540;8.364;2023-04-06T11:47:34;4.10;;;3.80;;
12519;SDS011;6325;49.540;8.364;2023-04-06T11:50:07;3.95;;;3.67;;
12519;SDS011;6325;49.540;8.364;2023-04-06T11:52:35;4.00;;;3.67;;
12519;SDS011;6325;49.540;8.364;2023-04-06T11:55:14;3.80;;;3.60;;
12519;SDS011;6325;49.540;8.364;2023-04-06T11:57:42;4.22;;;3.83;;
12519;SDS011;6325;49.540;8.364;2023-04-06T12:00:10;4.22;;;3.83;;
12519;SDS011;6325;49.540;8.364;2023-04-06T12:02:38;3.80;;;3.50;;
12519;SDS011;6325;49.540;8.364;2023-04-06T12:05:08;4.07;;;3.67;;
12519;SDS011;6325;49.540;8.364;2023-04-06T12:07:36;3.92;;;3.53;;
12519;SDS011;6325;49.540;8.364;2023-04-06T12:10:03;3.97;;;3.67;;
12519;SDS011;6325;49.540;8.364;2023-04-06T12:12:31;4.00;;;3.70;;
12519;SDS011;6325;49.540;8.364;2023-04-06T12:14:58;4.55;;;4.15;;
12519;SDS011;6325;49.540;8.364;2023-04-06T12:17:25;4.28;;;3.95;;
12519;SDS011;6325;49.540;8.364;2023-04-06T12:20:09;4.35;;;3.95;;
12519;SDS011;6325;49.540;8.364;2023-04-06T12:22:36;4.18;;;3.78;;
12519;SDS011;6325;49.540;8.364;2023-04-06T12:25:04;4.57;;;4.18;;
12519;SDS011;6325;49.540;8.364;2023-04-06T12:27:31;4.70;;;4.28;;
12519;SDS011;6325;49.540;8.364;2023-04-06T12:29:59;4.72;;;4.32;;
12519;SDS011;6325;49.540;8.364;2023-04-06T12:32:26;4.53;;;4.13;;
12519;SDS011;6325;49.540;8.364;2023-04-06T12:34:53;4.55;;;4.15;;
12519;SDS011;6325;49.540;8.364;2023-04-06T12:37:21;3.97;;;3.65;;
12519;SDS011;6325;49.540;8.364;2023-04-06T12:39:48;4.03;;;3.65;;
12519;SDS011;6325;49.540;8.364;2023-04-06T12:42:15;4.10;;;3.80;;
12519;SDS011;6325;49.540;8.364;2023-04-06T12:44:42;4.25;;;3.95;;
12519;SDS011;6325;49.540;8.364;2023-04-06T12:47:10;4.10;;;3.80;;
12519;SDS011;6325;49.540;8.364;2023-04-06T12:49:37;4.18;;;3.70;;
12519;SDS011;6325;49.540;8.364;2023-04-06T12:52:04;4.43;;;4.10;;
12519;SDS011;6325;49.540;8.364;2023-04-06T12:54:33;4.90;;;4.50;;
12519;SDS011;6325;49.540;8.364;2023-04-06T12:57:00;4.57;;;4.18;;
12519;SDS011;6325;49.540;8.364;2023-04-06T12:59:27;4.63;;;4.20;;
12519;SDS011;6325;49.540;8.364;2023-04-06T13:01:59;4.30;;;3.90;;
12519;SDS011;6325;49.540;8.364;2023-04-06T13:04:27;4.90;;;4.50;;
12519;SDS011;6325;49.540;8.364;2023-04-06T13:06:54;4.47;;;4.18;;
12519;SDS011;6325;49.540;8.364;2023-04-06T13:09:21;4.80;;;4.40;;
12519;SDS011;6325;49.540;8.364;2023-04-06T13:11:49;4.28;;;3.90;;
12519;SDS011;6325;49.540;8.364;2023-04-06T13:14:16;3.80;;;3.50;;
12519;SDS011;6325;49.540;8.364;2023-04-06T13:16:44;3.87;;;3.57;;
12519;SDS011;6325;49.540;8.364;2023-04-06T13:19:11;4.53;;;3.85;;
12519;SDS011;6325;49.540;8.364;2023-04-06T13:21:38;4.30;;;3.90;;
12519;SDS011;6325;49.540;8.364;2023-04-06T13:24:05;3.70;;;3.40;;
12519;SDS011;6325;49.540;8.364;2023-04-06T13:26:32;3.92;;;3.63;;
12519;SDS011;6325;49.540;8.364;2023-04-06T13:29:05;3.70;;;3.40;;
12519;SDS011;6325;49.540;8.364;2023-04-06T13:31:34;3.80;;;3.50;;
12519;SDS011;6325;49.540;8.364;2023-04-06T13:34:03;3.63;;;3.33;;
12519;SDS011;6325;49.540;8.364;2023-04-06T13:36:30;4.13;;;3.72;;
12519;SDS011;6325;49.540;8.364;2023-04-06T13:38:58;3.53;;;3.27;;
12519;SDS011;6325;49.540;8.364;2023-04-06T13:41:25;3.70;;;3.40;;
12519;SDS011;6325;49.540;8.364;2023-04-06T13:43:52;3.38;;;3.15;;
12519;SDS011;6325;49.540;8.364;2023-04-06T13:46:25;3.70;;;3.40;;
12519;SDS011;6325;49.540;8.364;2023-04-06T13:48:52;3.50;;;3.30;;
12519;SDS011;6325;49.540;8.364;2023-04-06T13:51:20;3.45;;;3.15;;
12519;SDS011;6325;49.540;8.364;2023-04-06T13:53:49;3.40;;;3.10;;
12519;SDS011;6325;49.540;8.364;2023-04-06T13:56:17;3.25;;;3.03;;
12519;SDS011;6325;49.540;8.364;2023-04-06T13:58:45;3.70;;;3.40;;
12519;SDS011;6325;49.540;8.364;2023-04-06T14:01:12;3.83;;;3.53;;
12519;SDS011;6325;49.540;8.364;2023-04-06T14:03:41;4.10;;;3.70;;
12519;SDS011;6325;49.540;8.364;2023-04-06T14:06:12;3.83;;;3.53;;
12519;SDS011;6325;49.540;8.364;2023-04-06T14:08:40;4.00;;;3.60;;
12519;SDS011;6325;49.540;8.364;2023-04-06T14:11:10;4.00;;;3.70;;
12519;SDS011;6325;49.540;8.364;2023-04-06T14:13:53;4.45;;;4.05;;
12519;SDS011;6325;49.540;8.364;2023-04-06T14:16:23;3.70;;;3.40;;
12519;SDS011;6325;49.540;8.364;2023-04-06T14:19:05;4.10;;;3.75;;
12519;SDS011;6325;49.540;8.364;2023-04-06T14:21:39;4.43;;;3.90;;
12519;SDS011;6325;49.540;8.364;2023-04-06T14:24:06;4.10;;;3.70;;
12519;SDS011;6325;49.540;8.364;2023-04-06T14:26:37;3.77;;;3.43;;
12519;SDS011;6325;49.540;8.364;2023-04-06T14:29:06;4.18;;;3.78;;
12519;SDS011;6325;49.540;8.364;2023-04-06T14:31:46;4.20;;;3.90;;
12519;SDS011;6325;49.540;8.364;2023-04-06T14:37:28;3.90;;;3.60;;
12519;SDS011;6325;49.540;8.364;2023-04-06T14:39:56;3.70;;;3.40;;
12519;SDS011;6325;49.540;8.364;2023-04-06T14:42:24;3.83;;;3.53;;
12519;SDS011;6325;49.540;8.364;2023-04-06T14:44:52;3.40;;;3.10;;
12519;SDS011;6325;49.540;8.364;2023-04-06T14:47:21;3.60;;;3.30;;
12519;SDS011;6325;49.540;8.364;2023-04-06T14:49:48;3.45;;;3.15;;
12519;SDS011;6325;49.540;8.364;2023-04-06T14:52:33;4.10;;;3.70;;
12519;SDS011;6325;49.540;8.364;2023-04-06T14:55:02;3.50;;;3.20;;
12519;SDS011;6325;49.540;8.364;2023-04-06T14:57:40;3.83;;;3.42;;
12519;SDS011;6325;49.540;8.364;2023-04-06T15:00:07;3.85;;;3.55;;
12519;SDS011;6325;49.540;8.364;2023-04-06T15:02:38;3.40;;;3.10;;
12519;SDS011;6325;49.540;8.364;2023-04-06T15:05:08;4.00;;;3.60;;
12519;SDS011;6325;49.540;8.364;2023-04-06T15:07:45;3.63;;;3.30;;
12519;SDS011;6325;49.540;8.364;2023-04-06T15:10:12;4.20;;;3.40;;
12519;SDS011;6325;49.540;8.364;2023-04-06T15:12:39;3.50;;;3.20;;
12519;SDS011;6325;49.540;8.364;2023-04-06T15:15:06;3.83;;;3.53;;
12519;SDS011;6325;49.540;8.364;2023-04-06T15:17:34;3.80;;;3.50;;
12519;SDS011;6325;49.540;8.364;2023-04-06T15:20:01;3.95;;;3.20;;
12519;SDS011;6325;49.540;8.364;2023-04-06T15:22:32;5.72;;;3.92;;
12519;SDS011;6325;49.540;8.364;2023-04-06T15:25:22;5.00;;;4.55;;
12519;SDS011;6325;49.540;8.364;2023-04-06T15:27:49;4.30;;;3.90;;
12519;SDS011;6325;49.540;8.364;2023-04-06T15:30:17;4.10;;;3.70;;
12519;SDS011;6325;49.540;8.364;2023-04-06T15:32:51;3.35;;;3.05;;
12519;SDS011;6325;49.540;8.364;2023-04-06T15:35:19;5.55;;;4.43;;
12519;SDS011;6325;49.540;8.364;2023-04-06T15:37:46;6.53;;;4.72;;
12519;SDS011;6325;49.540;8.364;2023-04-06T15:43:07;3.50;;;3.20;;
12519;SDS011;6325;49.540;8.364;2023-04-06T15:45:34;3.00;;;2.80;;
12519;SDS011;6325;49.540;8.364;2023-04-06T15:48:03;3.13;;;2.80;;
12519;SDS011;6325;49.540;8.364;2023-04-06T15:50:30;4.32;;;3.60;;
12519;SDS011;6325;49.540;8.364;2023-04-06T15:52:57;3.67;;;3.38;;
12519;SDS011;6325;49.540;8.364;2023-04-06T15:55:26;8.88;;;5.53;;
12519;SDS011;6325;49.540;8.364;2023-04-06T15:57:54;10.40;;;6.57;;
12519;SDS011;6325;49.540;8.364;2023-04-06T16:00:21;4.53;;;3.53;;
12519;SDS011;6325;49.540;8.364;2023-04-06T16:02:49;8.88;;;5.60;;
12519;SDS011;6325;49.540;8.364;2023-04-06T16:05:16;7.28;;;5.18;;
12519;SDS011;6325;49.540;8.364;2023-04-06T16:07:43;5.68;;;4.10;;
12519;SDS011;6325;49.540;8.364;2023-04-06T16:10:10;3.72;;;3.13;;
12519;SDS011;6325;49.540;8.364;2023-04-06T16:12:37;2.47;;;2.28;;
12519;SDS011;6325;49.540;8.364;2023-04-06T16:15:08;2.60;;;2.40;;
12519;SDS011;6325;49.540;8.364;2023-04-06T16:17:35;2.40;;;2.20;;
12519;SDS011;6325;49.540;8.364;2023-04-06T16:20:02;4.15;;;3.47;;
12519;SDS011;6325;49.540;8.364;2023-04-06T16:22:30;2.65;;;2.40;;
12519;SDS011;6325;49.540;8.364;2023-04-06T16:24:57;2.70;;;2.50;;
12519;SDS011;6325;49.540;8.364;2023-04-06T16:27:24;3.67;;;3.30;;
12519;SDS011;6325;49.540;8.364;2023-04-06T16:29:51;4.72;;;4.03;;
12519;SDS011;6325;49.540;8.364;2023-04-06T16:32:20;7.80;;;5.03;;
12519;SDS011;6325;49.540;8.364;2023-04-06T16:34:47;4.68;;;3.78;;
12519;SDS011;6325;49.540;8.364;2023-04-06T16:37:14;6.53;;;4.30;;
12519;SDS011;6325;49.540;8.364;2023-04-06T16:39:41;3.63;;;3.00;;
12519;SDS011;6325;49.540;8.364;2023-04-06T16:42:08;3.22;;;2.92;;
12519;SDS011;6325;49.540;8.364;2023-04-06T16:44:35;7.37;;;4.63;;
12519;SDS011;6325;49.540;8.364;2023-04-06T16:47:02;8.18;;;5.03;;
12519;SDS011;6325;49.540;8.364;2023-04-06T16:49:30;5.80;;;4.22;;
12519;SDS011;6325;49.540;8.364;2023-04-06T16:51:57;6.15;;;4.65;;
12519;SDS011;6325;49.540;8.364;2023-04-06T16:54:26;4.40;;;2.85;;
12519;SDS011;6325;49.540;8.364;2023-04-06T16:56:53;6.20;;;4.22;;
12519;SDS011;6325;49.540;8.364;2023-04-06T16:59:21;5.03;;;3.63;;
12519;SDS011;6325;49.540;8.364;2023-04-06T17:01:48;3.13;;;2.50;;
12519;SDS011;6325;49.540;8.364;2023-04-06T17:04:15;2.10;;;1.90;;
12519;SDS011;6325;49.540;8.364;2023-04-06T17:06:43;2.50;;;2.30;;
12519;SDS011;6325;49.540;8.364;2023-04-06T17:09:10;4.40;;;2.87;;
12519;SDS011;6325;49.540;8.364;2023-04-06T17:11:37;8.55;;;5.28;;
12519;SDS011;6325;49.540;8.364;2023-04-06T17:14:06;4.82;;;3.40;;
12519;SDS011;6325;49.540;8.364;2023-04-06T17:16:33;2.30;;;2.10;;
12519;SDS011;6325;49.540;8.364;2023-04-06T17:19:00;2.33;;;2.13;;
12519;SDS011;6325;49.540;8.364;2023-04-06T17:21:27;2.50;;;2.30;;
12519;SDS011;6325;49.540;8.364;2023-04-06T17:23:56;2.65;;;2.45;;
12519;SDS011;6325;49.540;8.364;2023-04-06T17:26:23;2.33;;;2.23;;
12519;SDS011;6325;49.540;8.364;2023-04-06T17:28:50;3.35;;;3.05;;
12519;SDS011;6325;49.540;8.364;2023-04-06T17:31:17;6.15;;;4.25;;
12519;SDS011;6325;49.540;8.364;2023-04-06T17:33:44;9.52;;;6.00;;
12519;SDS011;6325;49.540;8.364;2023-04-06T17:36:11;8.05;;;5.05;;
12519;SDS011;6325;49.540;8.364;2023-04-06T17:38:38;2.90;;;2.57;;
12519;SDS011;6325;49.540;8.364;2023-04-06T17:41:09;2.47;;;2.38;;
12519;SDS011;6325;49.540;8.364;2023-04-06T17:43:37;2.92;;;2.72;;
12519;SDS011;6325;49.540;8.364;2023-04-06T17:46:04;3.13;;;2.90;;
12519;SDS011;6325;49.540;8.364;2023-04-06T17:48:31;3.40;;;3.10;;
12519;SDS011;6325;49.540;8.364;2023-04-06T17:50:58;6.28;;;4.80;;
12519;SDS011;6325;49.540;8.364;2023-04-06T17:53:25;5.05;;;3.95;;
12519;SDS011;6325;49.540;8.364;2023-04-06T17:55:54;3.30;;;3.00;;
12519;SDS011;6325;49.540;8.364;2023-04-06T17:58:25;7.25;;;4.45;;
12519;SDS011;6325;49.540;8.364;2023-04-06T18:00:52;4.78;;;3.40;;
12519;SDS011;6325;49.540;8.364;2023-04-06T18:03:19;7.30;;;4.78;;
12519;SDS011;6325;49.540;8.364;2023-04-06T18:05:46;8.80;;;5.35;;
12519;SDS011;6325;49.540;8.364;2023-04-06T18:08:26;4.03;;;3.30;;